CYDO2: Sardis Lake

Data processed at Fri Mar 09 2018 23:11


All information presented herein is the property of the government of the United States of America and may be revised or deleted at any time without prior notice.
Dissemination of this information without the expressed written consent of the Public Affairs Office, Tulsa District U.S. Army Corps of Engineers is strictly prohibited.
These data are gathered electronically and, as presented, have not undergone any form of quality control. These data are not guaranteed to be valid or correct.
Go to home page.
Go to station list.

Downstream station:


Previous Day
Next Day
Current Day
    
SHEF ID:       CYDO2     Sardis Lake
STATION TYPE:  RESERVOIR
Normal Pool:  Bottom =   542.00, Top =   599.00

               PRECIP PRECIP(A) ELEVATION   STORAGE    INFLOW   RELEASE  AIR-TEMP  WIND-DIRWIND-SPEED REL-HUMID SOLAR-RAD   VOLTAGE  BAT-LOAD
                   in        in        ft     ac-ft       cfs       cfs         F       deg       mph         %      W/m2      volt      volt
              Ccp-Rev   Ccp-Rev   Ccp-Rev   Ccp-Rev  Regi-Rev  Regi-Rev   Ccp-Rev   Ccp-Rev   Ccp-Rev   Ccp-Rev   Ccp-Rev   Ccp-Rev   Ccp-Rev
(US/Central)
03/07 00:00      0.00      ----    602.51    324496        12       978     42.80    350.60     30.50     49.22      0.00     14.28     13.13
03/07 01:00      0.00      ----    602.50    324345        12       978     41.22    354.80     23.70     51.68      0.00     14.27     13.13
03/07 02:00      0.00      ----    602.49    324194         6       977     39.51    354.30     19.60     52.63      0.00     14.27     13.13
03/07 03:00      0.00      ----    602.48    324044         0       977     38.17    354.30     21.40     57.51      0.00     14.27     13.13
03/07 04:00      0.00      ----    602.47    323893         6       977     36.95    351.50     15.80     59.35      0.00     14.26     13.13
03/07 05:00      0.00      ----    602.46    323742        12       977     36.16    350.50     16.10     60.91      0.00     14.26     13.13
03/07 06:00      0.00      ----    602.45    323591        18       977     35.28    351.70     10.20     61.40      0.00     14.26     13.13
03/07 07:00      0.00      ----    602.45    323591        24       977     35.06    353.50     16.50     63.14      5.30     14.27     13.13
03/07 08:00      0.00      ----    602.45    323591        24       977     34.86    344.30     15.20     65.74    118.90     14.26     13.13
03/07 09:00      0.00      ----    602.44    323441        18       977     35.19    347.90     16.40     65.14    353.30     14.26     13.53
03/07 10:00      0.00      ----    602.43    323290        12       977     36.45    351.10     14.70     62.29    560.70     14.26     14.08
03/07 11:00      0.00      ----    602.42    323139         6       977     38.17    342.00     10.90     58.14    639.70     14.26     14.08
03/07 12:00      0.00      ----    602.41    322989         0       977     40.39    341.90     12.90     53.07    815.10     14.27     13.60
03/07 13:00      0.00      ----    602.40    322838         1       977     42.57    340.40      9.10     46.65    883.30     14.27     13.60
03/07 14:00      0.00      ----    602.41    322989         3       977     45.61    329.60     11.60     41.52    830.10     14.27     14.00
03/07 15:00      0.00      ----    602.40    322838        10       977     47.61    340.50     13.70     39.47    711.70     14.27     14.00
03/07 16:00      0.00      ----    602.40    322838        10       977     49.14    336.30     11.60     37.35    540.20     14.28     13.37
03/07 17:00      0.00      ----    602.39    322687        17       977     50.16    337.30     12.40     36.22    322.90     14.28     13.21
03/07 18:00      0.00      ----    602.38    322537        23       977     50.50    346.60     12.10     37.77     94.50     14.28     13.21
03/07 19:00      0.00      ----    602.37    322386        21       976     49.78    336.00      6.90     41.20      0.00     14.27     13.13
03/07 20:00      0.00      ----    602.37    322386        21       976     45.91    275.00      1.30     44.49      0.00     14.27     13.13
03/07 21:00      0.00      ----    602.36    322235        28       977     40.03    161.10      3.30     57.04      0.00     14.26     13.13
03/07 22:00      0.00      ----    602.35    322084        29       976     36.18    169.20      3.80     68.70      0.00     14.26     13.13
03/07 23:00      0.00      ----    602.35    322084        29       976     34.54    167.40      3.80     73.28      0.00     14.27     13.13